Terminal Aerodrome Forecast
Issued by NWS

Home | Current Version | Previous Version | Text Only | Print | Product List | Glossary On
Versions: 1 2 3 4 5 6 7 8 9 10 11 12 13 14 15 16
992
FTUS42 TJSJ 191738
TAFISX
TAF
TISX 191738Z 1918/2018 10017KT 4SM HZ FEW030 SCT050
     FM192300 08012KT P6SM FEW030
     FM201400 08015KT P6SM FEW030=

USA.gov is the U.S. government's official web portal to all federal, state and local government web resources and services.